createdAt,value
2022-12-01T00:04:11.116Z,101505.17
2022-12-01T00:09:35.689Z,101502.08
2022-12-01T00:14:42.552Z,101500.08
2022-12-01T00:19:49.787Z,101506.52
2022-12-01T00:24:57.247Z,101502.94
2022-12-01T00:30:05.033Z,101503.83
2022-12-01T00:35:12.383Z,101502.14
2022-12-01T00:40:19.116Z,101493.34
2022-12-01T00:45:25.931Z,101496.70
2022-12-01T00:50:32.862Z,101495.60
2022-12-01T00:55:40.307Z,101499.62
2022-12-01T01:00:47.157Z,101498.75
2022-12-01T01:05:53.977Z,101495.77
2022-12-01T01:11:02.198Z,101492.35
2022-12-01T01:16:14.611Z,101489.60
2022-12-01T01:21:22.137Z,101490.88
2022-12-01T01:26:31.130Z,101488.76
2022-12-01T01:31:38.413Z,101484.06
2022-12-01T01:36:46.161Z,101476.98
2022-12-01T01:41:53.047Z,101473.43
2022-12-01T01:46:59.996Z,101467.84
2022-12-01T01:52:07.340Z,101467.66
2022-12-01T01:57:16.411Z,101466.19
2022-12-01T02:02:23.320Z,101463.65
2022-12-01T02:07:30.354Z,101459.09
2022-12-01T02:12:57.162Z,101455.41
2022-12-01T02:18:14.705Z,101455.10
2022-12-01T02:23:49.670Z,101452.97
2022-12-01T02:29:18.417Z,101454.75
2022-12-01T02:34:31.114Z,101455.46
2022-12-01T02:39:45.171Z,101449.28
2022-12-01T02:44:52.377Z,101449.20
2022-12-01T02:50:02.882Z,101446.38
2022-12-01T02:55:10.737Z,101444.98
2022-12-01T03:00:19.906Z,101442.29
2022-12-01T03:05:32.379Z,101434.38
2022-12-01T03:10:49.303Z,101433.05
2022-12-01T03:16:02.885Z,101433.42
2022-12-01T03:21:15.896Z,101422.61
2022-12-01T03:26:25.434Z,101420.57
2022-12-01T03:31:40.780Z,101419.73
2022-12-01T03:36:52.425Z,101419.87
2022-12-01T03:42:03.474Z,101421.77
2022-12-01T03:47:14.256Z,101418.40
2022-12-01T03:52:35.139Z,101420.04
2022-12-01T03:57:47.454Z,101419.77
2022-12-01T04:02:59.574Z,101417.28
2022-12-01T04:08:05.062Z,101421.70
2022-12-01T04:13:22.238Z,101422.27
2022-12-01T04:18:29.062Z,101426.53
2022-12-01T04:23:53.525Z,101425.16
2022-12-01T04:29:01.348Z,101424.39
2022-12-01T04:34:09.400Z,101419.72
2022-12-01T04:39:16.597Z,101419.73
2022-12-01T04:44:23.358Z,101421.95
2022-12-01T04:49:30.271Z,101424.54
2022-12-01T04:54:37.212Z,101431.86
2022-12-01T04:59:43.991Z,101433.89
2022-12-01T05:04:51.068Z,101434.42
2022-12-01T05:09:58.102Z,101438.98
2022-12-01T05:15:05.728Z,101434.95
2022-12-01T05:20:39.743Z,101437.86
2022-12-01T05:25:46.759Z,101436.09
2022-12-01T05:30:57.745Z,101434.69
2022-12-01T05:36:05.704Z,101429.84
2022-12-01T05:41:13.030Z,101429.70
2022-12-01T05:46:20.195Z,101424.70
2022-12-01T05:51:27.038Z,101422.43
2022-12-01T05:56:35.333Z,101429.60
2022-12-01T06:01:42.254Z,101427.14
2022-12-01T06:06:49.170Z,101434.27
2022-12-01T06:11:56.002Z,101433.27
2022-12-01T06:17:03.079Z,101439.55
2022-12-01T06:22:10.136Z,101438.39
2022-12-01T06:27:17.207Z,101438.09
2022-12-01T06:32:24.075Z,101441.41
2022-12-01T06:37:32.929Z,101437.42
2022-12-01T06:42:39.980Z,101436.96
2022-12-01T06:47:50.844Z,101440.56
2022-12-01T06:52:59.360Z,101437.92
2022-12-01T06:58:06.850Z,101442.23
2022-12-01T07:03:13.855Z,101436.56
2022-12-01T07:08:22.542Z,101437.35
2022-12-01T07:13:33.374Z,101440.98
2022-12-01T07:18:40.749Z,101449.02
2022-12-01T07:23:47.530Z,101451.64
2022-12-01T07:28:55.660Z,101451.73
2022-12-01T07:34:02.563Z,101454.09
2022-12-01T07:39:10.534Z,101451.19
2022-12-01T07:44:17.524Z,101454.48
2022-12-01T07:49:24.381Z,101459.05
2022-12-01T07:54:31.160Z,101463.64
2022-12-01T07:59:37.926Z,101464.78
2022-12-01T08:04:45.433Z,101463.87
2022-12-01T08:09:52.221Z,101465.31
2022-12-01T08:14:58.962Z,101465.86
2022-12-01T08:20:06.693Z,101464.73
2022-12-01T08:25:13.712Z,101461.42
2022-12-01T08:30:21.016Z,101464.28
2022-12-01T08:35:28.334Z,101465.38
2022-12-01T08:40:35.592Z,101462.73
2022-12-01T08:45:42.502Z,101457.48
2022-12-01T08:50:49.409Z,101465.80
2022-12-01T08:55:56.310Z,101461.09
2022-12-01T09:01:08.850Z,101460.35
2022-12-01T09:06:20.232Z,101466.77
2022-12-01T09:11:27.452Z,101464.49
2022-12-01T09:16:34.723Z,101466.66
2022-12-01T09:21:42.773Z,101462.06
2022-12-01T09:26:49.941Z,101463.40
2022-12-01T09:32:00.401Z,101461.48
2022-12-01T09:37:07.748Z,101454.59
2022-12-01T09:42:18.637Z,101447.91
2022-12-01T09:47:30.875Z,101443.38
2022-12-01T09:52:45.120Z,101445.66
2022-12-01T09:58:04.741Z,101437.59
2022-12-01T10:03:26.124Z,101431.02
2022-12-01T10:08:38.279Z,101432.37
2022-12-01T10:13:45.283Z,101428.02
2022-12-01T10:19:01.186Z,101428.09
2022-12-01T10:24:26.224Z,101424.27
2022-12-01T10:29:45.063Z,101424.71
2022-12-01T10:34:54.502Z,101423.20
2022-12-01T10:40:01.477Z,101416.11
2022-12-01T10:45:15.299Z,101414.05
2022-12-01T10:50:29.026Z,101407.80
2022-12-01T10:55:43.467Z,101402.58
2022-12-01T11:01:01.241Z,101407.42
2022-12-01T11:06:10.071Z,101407.98
2022-12-01T11:11:29.165Z,101403.92
2022-12-01T11:16:43.397Z,101401.60
2022-12-01T11:21:52.632Z,101391.96
2022-12-01T11:27:01.237Z,101394.39
2022-12-01T11:32:20.678Z,101395.14
2022-12-01T11:37:33.822Z,101395.64
2022-12-01T11:42:42.071Z,101391.58
2022-12-01T11:48:04.533Z,101390.23
2022-12-01T11:53:29.147Z,101391.08
2022-12-01T11:58:36.359Z,101393.98
2022-12-01T12:03:53.368Z,101390.08
2022-12-01T12:09:15.831Z,101384.97
2022-12-01T12:14:48.711Z,101384.95
2022-12-01T12:20:09.669Z,101382.14
2022-12-01T12:25:28.915Z,101384.55
2022-12-01T12:30:44.205Z,101381.30
2022-12-01T12:36:03.547Z,101381.85
2022-12-01T12:41:22.755Z,101380.83
2022-12-01T12:46:37.431Z,101381.66
2022-12-01T12:51:50.634Z,101375.69
2022-12-01T12:57:07.704Z,101374.71
2022-12-01T13:02:19.458Z,101378.25
2022-12-01T13:07:35.699Z,101386.71
2022-12-01T13:12:50.594Z,101391.58
2022-12-01T13:18:03.413Z,101391.73
2022-12-01T13:23:16.235Z,101391.33
2022-12-01T13:28:26.285Z,101390.63
2022-12-01T13:33:34.759Z,101390.27
2022-12-01T13:38:43.671Z,101390.73
2022-12-01T13:43:58.007Z,101390.29
2022-12-01T13:49:31.819Z,101393.59
2022-12-01T13:54:40.687Z,101397.08
2022-12-01T14:00:25.195Z,101397.88
2022-12-01T14:05:57.091Z,101395.23
2022-12-01T14:11:07.605Z,101396.88
2022-12-01T14:16:14.813Z,101390.38
2022-12-01T14:21:44.254Z,101389.45
2022-12-01T14:26:54.897Z,101392.95
2022-12-01T14:32:22.974Z,101395.02
2022-12-01T14:37:38.120Z,101389.77
2022-12-01T14:43:06.866Z,101387.36
2022-12-01T14:48:19.639Z,101388.30
2022-12-01T14:53:31.798Z,101388.43
2022-12-01T14:58:38.865Z,101384.35
2022-12-01T15:03:49.497Z,101383.13
2022-12-01T15:09:32.782Z,101386.48
2022-12-01T15:14:48.069Z,101384.58
2022-12-01T15:19:57.230Z,101383.05
2022-12-01T15:25:15.155Z,101381.20
2022-12-01T15:30:24.942Z,101375.45
2022-12-01T15:35:35.742Z,101364.95
2022-12-01T15:41:27.819Z,101365.09
2022-12-01T15:46:30.149Z,101360.50
2022-12-01T15:51:39.157Z,101364.91
2022-12-01T15:56:52.547Z,101366.45
2022-12-01T16:02:02.050Z,101368.63
2022-12-01T16:07:12.308Z,101368.90
2022-12-01T16:12:27.515Z,101369.27
2022-12-01T16:17:45.474Z,101371.11
2022-12-01T16:22:58.908Z,101373.30
2022-12-01T16:28:07.817Z,101378.23
2022-12-01T16:33:19.647Z,101379.61
2022-12-01T16:38:29.826Z,101372.85
2022-12-01T16:43:39.520Z,101372.60
2022-12-01T16:48:46.690Z,101374.27
2022-12-01T16:53:54.041Z,101379.89
2022-12-01T16:59:02.623Z,101374.98
2022-12-01T17:04:12.781Z,101379.95
2022-12-01T17:09:20.271Z,101381.27
2022-12-01T17:14:28.116Z,101379.58
2022-12-01T17:19:35.918Z,101381.95
2022-12-01T17:24:43.154Z,101380.61
2022-12-01T17:29:50.153Z,101376.36
2022-12-01T17:34:57.497Z,101373.08
2022-12-01T17:40:04.740Z,101373.58
2022-12-01T17:45:12.998Z,101371.52
2022-12-01T17:50:20.022Z,101365.75
2022-12-01T17:55:27.373Z,101362.55
2022-12-01T18:00:37.674Z,101362.20
2022-12-01T18:05:45.123Z,101365.23
2022-12-01T18:10:54.657Z,101367.80
2022-12-01T18:16:06.632Z,101368.13
2022-12-01T18:21:16.237Z,101373.57
2022-12-01T18:26:24.576Z,101370.14
2022-12-01T18:31:33.148Z,101374.52
2022-12-01T18:36:41.861Z,101372.98
2022-12-01T18:41:49.656Z,101375.83
2022-12-01T18:46:59.055Z,101374.92
2022-12-01T18:52:06.164Z,101379.96
2022-12-01T18:57:14.690Z,101382.00
2022-12-01T19:02:22.286Z,101375.44
2022-12-01T19:07:30.230Z,101373.59
2022-12-01T19:12:41.272Z,101371.91
2022-12-01T19:17:48.675Z,101371.70
2022-12-01T19:22:55.601Z,101367.39
2022-12-01T19:28:02.701Z,101368.04
2022-12-01T19:33:14.015Z,101368.17
2022-12-01T19:38:27.509Z,101369.66
2022-12-01T19:43:35.944Z,101370.78
2022-12-01T19:48:43.271Z,101368.35
2022-12-01T19:53:51.071Z,101374.95
2022-12-01T19:58:58.773Z,101371.06
2022-12-01T20:04:09.569Z,101375.59
2022-12-01T20:09:16.555Z,101371.80
2022-12-01T20:14:23.599Z,101372.88
2022-12-01T20:19:30.613Z,101370.20
2022-12-01T20:24:39.764Z,101364.73
2022-12-01T20:29:46.897Z,101367.08
2022-12-01T20:34:54.036Z,101362.79
2022-12-01T20:40:01.246Z,101361.23
2022-12-01T20:45:08.960Z,101360.39
2022-12-01T20:50:16.084Z,101358.00
2022-12-01T20:55:24.603Z,101359.63
2022-12-01T21:00:31.579Z,101360.63
2022-12-01T21:05:41.799Z,101354.34
2022-12-01T21:10:48.889Z,101354.21
2022-12-01T21:16:03.600Z,101357.38
2022-12-01T21:21:22.571Z,101359.36
2022-12-01T21:26:29.448Z,101357.83
2022-12-01T21:31:36.457Z,101354.79
2022-12-01T21:36:43.334Z,101354.12
2022-12-01T21:41:52.173Z,101350.20
2022-12-01T21:47:01.564Z,101349.28
2022-12-01T21:52:18.852Z,101350.04
2022-12-01T21:57:38.539Z,101349.36
2022-12-01T22:02:52.729Z,101350.20
2022-12-01T22:08:11.294Z,101350.34
2022-12-01T22:13:19.113Z,101346.77
2022-12-01T22:18:30.744Z,101342.40
2022-12-01T22:23:38.038Z,101339.51
2022-12-01T22:28:45.355Z,101336.16
2022-12-01T22:34:01.555Z,101339.54
2022-12-01T22:39:29.773Z,101338.86
2022-12-01T22:44:36.744Z,101342.20
2022-12-01T22:49:44.525Z,101343.66
2022-12-01T22:54:52.726Z,101345.16
2022-12-01T23:00:02.576Z,101339.52
2022-12-01T23:05:22.800Z,101339.14
2022-12-01T23:10:32.698Z,101332.00
2022-12-01T23:15:40.959Z,101327.23
2022-12-01T23:20:51.950Z,101327.64
2022-12-01T23:25:59.507Z,101328.44
2022-12-01T23:31:06.599Z,101321.40
2022-12-01T23:36:16.795Z,101316.59
2022-12-01T23:41:28.883Z,101317.77
2022-12-01T23:46:36.132Z,101313.20
2022-12-01T23:51:48.711Z,101309.20
2022-12-01T23:56:58.428Z,101301.34
